sensor_id;sensor_type;location;lat;lon;timestamp;temperature;humidity
592;DHT22;283;53.608;10.046;2022-12-07T00:01:15;4.50;99.90
592;DHT22;283;53.608;10.046;2022-12-07T00:03:44;4.50;99.90
592;DHT22;283;53.608;10.046;2022-12-07T00:06:12;4.80;99.90
592;DHT22;283;53.608;10.046;2022-12-07T00:08:40;4.50;99.90
592;DHT22;283;53.608;10.046;2022-12-07T00:11:09;4.80;99.90
592;DHT22;283;53.608;10.046;2022-12-07T00:13:39;4.60;99.90
592;DHT22;283;53.608;10.046;2022-12-07T00:16:07;4.60;99.90
592;DHT22;283;53.608;10.046;2022-12-07T00:18:35;4.60;99.90
592;DHT22;283;53.608;10.046;2022-12-07T00:21:04;4.70;99.90
592;DHT22;283;53.608;10.046;2022-12-07T00:23:32;4.70;99.90
592;DHT22;283;53.608;10.046;2022-12-07T00:26:03;4.70;99.90
592;DHT22;283;53.608;10.046;2022-12-07T00:28:30;4.60;99.90
592;DHT22;283;53.608;10.046;2022-12-07T00:31:01;4.50;99.90
592;DHT22;283;53.608;10.046;2022-12-07T00:33:28;4.50;99.90
592;DHT22;283;53.608;10.046;2022-12-07T00:35:56;4.50;99.90
592;DHT22;283;53.608;10.046;2022-12-07T00:38:24;4.60;99.90
592;DHT22;283;53.608;10.046;2022-12-07T00:40:58;4.70;99.90
592;DHT22;283;53.608;10.046;2022-12-07T00:43:26;4.60;99.90
592;DHT22;283;53.608;10.046;2022-12-07T00:45:53;4.60;99.90
592;DHT22;283;53.608;10.046;2022-12-07T00:48:23;4.50;99.90
592;DHT22;283;53.608;10.046;2022-12-07T00:50:51;4.50;99.90
592;DHT22;283;53.608;10.046;2022-12-07T00:53:19;4.50;99.90
592;DHT22;283;53.608;10.046;2022-12-07T00:55:46;4.50;99.90
592;DHT22;283;53.608;10.046;2022-12-07T00:58:15;4.40;99.90
592;DHT22;283;53.608;10.046;2022-12-07T01:00:42;4.50;99.90
592;DHT22;283;53.608;10.046;2022-12-07T01:03:10;4.50;99.90
592;DHT22;283;53.608;10.046;2022-12-07T01:05:40;4.50;99.90
592;DHT22;283;53.608;10.046;2022-12-07T01:08:15;4.50;99.90
592;DHT22;283;53.608;10.046;2022-12-07T01:10:43;4.60;99.90
592;DHT22;283;53.608;10.046;2022-12-07T01:13:11;4.60;99.90
592;DHT22;283;53.608;10.046;2022-12-07T01:15:39;4.60;99.90
592;DHT22;283;53.608;10.046;2022-12-07T01:18:06;4.60;99.90
592;DHT22;283;53.608;10.046;2022-12-07T01:20:34;4.50;99.90
592;DHT22;283;53.608;10.046;2022-12-07T01:23:03;4.60;99.90
592;DHT22;283;53.608;10.046;2022-12-07T01:25:31;4.60;99.90
592;DHT22;283;53.608;10.046;2022-12-07T01:27:58;4.60;99.90
592;DHT22;283;53.608;10.046;2022-12-07T01:30:26;4.50;99.90
592;DHT22;283;53.608;10.046;2022-12-07T01:32:54;4.40;99.90
592;DHT22;283;53.608;10.046;2022-12-07T01:35:22;4.40;99.90
592;DHT22;283;53.608;10.046;2022-12-07T01:37:50;4.40;99.90
592;DHT22;283;53.608;10.046;2022-12-07T01:40:19;4.40;99.90
592;DHT22;283;53.608;10.046;2022-12-07T01:42:46;4.50;99.90
592;DHT22;283;53.608;10.046;2022-12-07T01:48:05;4.40;99.90
592;DHT22;283;53.608;10.046;2022-12-07T01:50:35;4.30;99.90
592;DHT22;283;53.608;10.046;2022-12-07T01:53:03;4.30;99.90
592;DHT22;283;53.608;10.046;2022-12-07T01:55:33;4.10;99.90
592;DHT22;283;53.608;10.046;2022-12-07T01:58:01;4.10;99.90
592;DHT22;283;53.608;10.046;2022-12-07T02:00:29;4.00;99.90
592;DHT22;283;53.608;10.046;2022-12-07T02:02:59;4.00;99.90
592;DHT22;283;53.608;10.046;2022-12-07T02:05:29;4.00;99.90
592;DHT22;283;53.608;10.046;2022-12-07T02:07:57;3.90;99.90
592;DHT22;283;53.608;10.046;2022-12-07T02:10:26;3.90;99.90
592;DHT22;283;53.608;10.046;2022-12-07T02:18:13;3.70;99.90
592;DHT22;283;53.608;10.046;2022-12-07T02:20:44;3.70;99.90
592;DHT22;283;53.608;10.046;2022-12-07T02:23:23;3.80;99.90
592;DHT22;283;53.608;10.046;2022-12-07T02:26:12;3.80;99.90
592;DHT22;283;53.608;10.046;2022-12-07T02:28:52;3.60;99.90
592;DHT22;283;53.608;10.046;2022-12-07T02:31:23;3.70;99.90
592;DHT22;283;53.608;10.046;2022-12-07T02:33:54;3.70;99.90
592;DHT22;283;53.608;10.046;2022-12-07T02:36:26;3.80;99.90
592;DHT22;283;53.608;10.046;2022-12-07T02:38:57;3.70;99.90
592;DHT22;283;53.608;10.046;2022-12-07T02:41:30;3.70;99.90
592;DHT22;283;53.608;10.046;2022-12-07T02:44:03;3.70;99.90
592;DHT22;283;53.608;10.046;2022-12-07T02:46:32;3.90;99.90
592;DHT22;283;53.608;10.046;2022-12-07T02:49:01;3.90;99.90
592;DHT22;283;53.608;10.046;2022-12-07T02:51:30;3.70;99.90
592;DHT22;283;53.608;10.046;2022-12-07T02:53:58;3.70;99.90
592;DHT22;283;53.608;10.046;2022-12-07T02:56:26;3.50;99.90
592;DHT22;283;53.608;10.046;2022-12-07T02:58:58;3.60;99.90
592;DHT22;283;53.608;10.046;2022-12-07T03:01:30;3.50;99.90
592;DHT22;283;53.608;10.046;2022-12-07T03:04:16;3.50;99.90
592;DHT22;283;53.608;10.046;2022-12-07T03:06:55;3.50;99.90
592;DHT22;283;53.608;10.046;2022-12-07T03:09:40;3.30;99.90
592;DHT22;283;53.608;10.046;2022-12-07T03:12:12;3.30;99.90
592;DHT22;283;53.608;10.046;2022-12-07T03:14:44;3.30;99.90
592;DHT22;283;53.608;10.046;2022-12-07T03:17:14;3.40;99.90
592;DHT22;283;53.608;10.046;2022-12-07T03:19:43;3.30;99.90
592;DHT22;283;53.608;10.046;2022-12-07T03:22:12;3.30;99.90
592;DHT22;283;53.608;10.046;2022-12-07T03:24:42;3.20;99.90
592;DHT22;283;53.608;10.046;2022-12-07T03:27:11;3.10;99.90
592;DHT22;283;53.608;10.046;2022-12-07T03:29:42;3.00;99.90
592;DHT22;283;53.608;10.046;2022-12-07T03:32:12;3.00;99.90
592;DHT22;283;53.608;10.046;2022-12-07T03:34:44;3.00;99.90
592;DHT22;283;53.608;10.046;2022-12-07T03:37:14;3.20;99.90
592;DHT22;283;53.608;10.046;2022-12-07T03:39:45;3.00;99.90
592;DHT22;283;53.608;10.046;2022-12-07T03:42:13;3.00;99.90
592;DHT22;283;53.608;10.046;2022-12-07T03:44:41;3.00;99.90
592;DHT22;283;53.608;10.046;2022-12-07T03:47:11;3.00;99.90
592;DHT22;283;53.608;10.046;2022-12-07T03:49:40;2.90;99.90
592;DHT22;283;53.608;10.046;2022-12-07T03:52:13;2.90;99.90
592;DHT22;283;53.608;10.046;2022-12-07T03:54:45;2.90;99.90
592;DHT22;283;53.608;10.046;2022-12-07T03:57:14;2.80;99.90
592;DHT22;283;53.608;10.046;2022-12-07T03:59:43;3.00;99.90
592;DHT22;283;53.608;10.046;2022-12-07T04:02:11;2.80;99.90
592;DHT22;283;53.608;10.046;2022-12-07T04:04:40;2.80;99.90
592;DHT22;283;53.608;10.046;2022-12-07T04:07:08;2.70;99.90
592;DHT22;283;53.608;10.046;2022-12-07T04:09:38;2.70;99.90
592;DHT22;283;53.608;10.046;2022-12-07T04:12:06;2.90;99.90
592;DHT22;283;53.608;10.046;2022-12-07T04:14:33;2.70;99.90
592;DHT22;283;53.608;10.046;2022-12-07T04:17:01;2.60;99.90
592;DHT22;283;53.608;10.046;2022-12-07T04:19:30;2.80;99.90
592;DHT22;283;53.608;10.046;2022-12-07T04:21:58;2.60;99.90
592;DHT22;283;53.608;10.046;2022-12-07T04:24:27;2.80;99.90
592;DHT22;283;53.608;10.046;2022-12-07T04:26:56;2.70;99.90
592;DHT22;283;53.608;10.046;2022-12-07T04:29:24;2.60;99.90
592;DHT22;283;53.608;10.046;2022-12-07T04:31:52;2.60;99.90
592;DHT22;283;53.608;10.046;2022-12-07T04:34:20;2.60;99.90
592;DHT22;283;53.608;10.046;2022-12-07T04:36:48;2.50;99.90
592;DHT22;283;53.608;10.046;2022-12-07T04:39:18;2.60;99.90
592;DHT22;283;53.608;10.046;2022-12-07T04:41:46;2.50;99.90
592;DHT22;283;53.608;10.046;2022-12-07T04:44:15;2.60;99.90
592;DHT22;283;53.608;10.046;2022-12-07T04:46:43;2.60;99.90
592;DHT22;283;53.608;10.046;2022-12-07T04:49:11;2.40;99.90
592;DHT22;283;53.608;10.046;2022-12-07T04:51:39;2.50;99.90
592;DHT22;283;53.608;10.046;2022-12-07T04:54:07;2.40;99.90
592;DHT22;283;53.608;10.046;2022-12-07T04:56:35;2.50;99.90
592;DHT22;283;53.608;10.046;2022-12-07T04:59:03;2.40;99.90
592;DHT22;283;53.608;10.046;2022-12-07T05:01:32;2.40;99.90
592;DHT22;283;53.608;10.046;2022-12-07T05:04:00;2.50;99.90
592;DHT22;283;53.608;10.046;2022-12-07T05:06:28;2.30;99.90
592;DHT22;283;53.608;10.046;2022-12-07T05:08:55;2.40;99.90
592;DHT22;283;53.608;10.046;2022-12-07T05:11:23;2.40;99.90
592;DHT22;283;53.608;10.046;2022-12-07T05:14:08;2.50;99.90
592;DHT22;283;53.608;10.046;2022-12-07T05:16:40;2.30;99.90
592;DHT22;283;53.608;10.046;2022-12-07T05:19:09;2.40;99.90
592;DHT22;283;53.608;10.046;2022-12-07T05:21:37;2.40;99.90
592;DHT22;283;53.608;10.046;2022-12-07T05:24:05;2.60;99.90
592;DHT22;283;53.608;10.046;2022-12-07T05:26:33;2.40;99.90
592;DHT22;283;53.608;10.046;2022-12-07T05:29:10;2.30;99.90
592;DHT22;283;53.608;10.046;2022-12-07T05:31:39;2.30;99.90
592;DHT22;283;53.608;10.046;2022-12-07T05:34:07;2.30;99.90
592;DHT22;283;53.608;10.046;2022-12-07T05:36:35;2.30;99.90
592;DHT22;283;53.608;10.046;2022-12-07T05:39:03;2.40;99.90
592;DHT22;283;53.608;10.046;2022-12-07T05:41:43;2.40;99.90
592;DHT22;283;53.608;10.046;2022-12-07T05:44:28;2.40;99.90
592;DHT22;283;53.608;10.046;2022-12-07T05:46:57;2.60;99.90
592;DHT22;283;53.608;10.046;2022-12-07T05:49:40;2.40;99.90
592;DHT22;283;53.608;10.046;2022-12-07T05:55:48;2.10;99.90
592;DHT22;283;53.608;10.046;2022-12-07T05:59:18;2.20;99.90
592;DHT22;283;53.608;10.046;2022-12-07T06:01:58;2.10;99.90
592;DHT22;283;53.608;10.046;2022-12-07T06:04:42;2.10;99.90
592;DHT22;283;53.608;10.046;2022-12-07T06:07:24;2.10;99.90
592;DHT22;283;53.608;10.046;2022-12-07T06:10:23;2.10;99.90
592;DHT22;283;53.608;10.046;2022-12-07T06:12:51;2.10;99.90
592;DHT22;283;53.608;10.046;2022-12-07T06:15:25;1.80;99.90
592;DHT22;283;53.608;10.046;2022-12-07T06:21:59;2.30;99.90
592;DHT22;283;53.608;10.046;2022-12-07T06:24:29;2.20;99.90
592;DHT22;283;53.608;10.046;2022-12-07T06:26:57;2.10;99.90
592;DHT22;283;53.608;10.046;2022-12-07T06:29:25;2.20;99.90
592;DHT22;283;53.608;10.046;2022-12-07T06:31:52;2.00;99.90
592;DHT22;283;53.608;10.046;2022-12-07T06:34:21;2.00;99.90
592;DHT22;283;53.608;10.046;2022-12-07T06:36:51;2.00;99.90
592;DHT22;283;53.608;10.046;2022-12-07T06:39:21;2.20;99.90
592;DHT22;283;53.608;10.046;2022-12-07T06:41:49;2.20;99.90
592;DHT22;283;53.608;10.046;2022-12-07T06:44:18;2.10;99.90
592;DHT22;283;53.608;10.046;2022-12-07T06:46:46;2.10;99.90
592;DHT22;283;53.608;10.046;2022-12-07T06:49:13;2.30;99.90
592;DHT22;283;53.608;10.046;2022-12-07T06:51:41;2.00;99.90
592;DHT22;283;53.608;10.046;2022-12-07T06:54:11;2.10;99.90
592;DHT22;283;53.608;10.046;2022-12-07T06:56:39;2.20;99.90
592;DHT22;283;53.608;10.046;2022-12-07T06:59:06;2.10;99.90
592;DHT22;283;53.608;10.046;2022-12-07T07:01:35;2.20;99.90
592;DHT22;283;53.608;10.046;2022-12-07T07:04:03;2.30;99.90
592;DHT22;283;53.608;10.046;2022-12-07T07:06:31;2.70;99.90
592;DHT22;283;53.608;10.046;2022-12-07T07:08:58;2.50;99.90
592;DHT22;283;53.608;10.046;2022-12-07T07:11:28;2.60;99.90
592;DHT22;283;53.608;10.046;2022-12-07T07:13:55;2.60;99.90
592;DHT22;283;53.608;10.046;2022-12-07T07:16:29;2.60;99.90
592;DHT22;283;53.608;10.046;2022-12-07T07:18:57;2.70;99.90
592;DHT22;283;53.608;10.046;2022-12-07T07:21:25;2.70;99.90
592;DHT22;283;53.608;10.046;2022-12-07T07:23:53;2.60;99.90
592;DHT22;283;53.608;10.046;2022-12-07T07:26:21;2.70;99.90
592;DHT22;283;53.608;10.046;2022-12-07T07:28:50;2.80;99.90
592;DHT22;283;53.608;10.046;2022-12-07T07:31:18;2.70;99.90
592;DHT22;283;53.608;10.046;2022-12-07T07:33:45;3.00;99.90
592;DHT22;283;53.608;10.046;2022-12-07T07:36:13;2.80;99.90
592;DHT22;283;53.608;10.046;2022-12-07T07:38:41;2.80;99.90
592;DHT22;283;53.608;10.046;2022-12-07T07:41:09;2.80;99.90
592;DHT22;283;53.608;10.046;2022-12-07T07:43:36;2.80;99.90
592;DHT22;283;53.608;10.046;2022-12-07T07:46:05;2.90;99.90
592;DHT22;283;53.608;10.046;2022-12-07T07:48:33;3.10;99.90
592;DHT22;283;53.608;10.046;2022-12-07T07:51:04;2.90;99.90
592;DHT22;283;53.608;10.046;2022-12-07T07:53:35;3.00;99.90
592;DHT22;283;53.608;10.046;2022-12-07T07:56:17;2.80;99.90
592;DHT22;283;53.608;10.046;2022-12-07T07:58:45;2.90;99.90
592;DHT22;283;53.608;10.046;2022-12-07T08:01:17;3.00;99.90
592;DHT22;283;53.608;10.046;2022-12-07T08:03:46;2.70;99.90
592;DHT22;283;53.608;10.046;2022-12-07T08:06:14;3.00;99.90
592;DHT22;283;53.608;10.046;2022-12-07T08:08:42;3.00;99.80
592;DHT22;283;53.608;10.046;2022-12-07T08:11:10;3.20;99.90
592;DHT22;283;53.608;10.046;2022-12-07T08:13:38;3.20;99.90
592;DHT22;283;53.608;10.046;2022-12-07T08:16:06;3.40;99.70
592;DHT22;283;53.608;10.046;2022-12-07T08:18:36;3.20;99.50
592;DHT22;283;53.608;10.046;2022-12-07T08:21:05;3.10;99.70
592;DHT22;283;53.608;10.046;2022-12-07T08:23:33;3.20;99.60
592;DHT22;283;53.608;10.046;2022-12-07T08:26:06;3.00;99.90
592;DHT22;283;53.608;10.046;2022-12-07T08:28:34;3.40;99.30
592;DHT22;283;53.608;10.046;2022-12-07T08:31:03;3.10;99.90
592;DHT22;283;53.608;10.046;2022-12-07T08:33:32;3.20;99.90
592;DHT22;283;53.608;10.046;2022-12-07T08:36:02;3.20;99.90
592;DHT22;283;53.608;10.046;2022-12-07T08:38:30;3.20;99.60
592;DHT22;283;53.608;10.046;2022-12-07T08:40:59;3.20;99.90
592;DHT22;283;53.608;10.046;2022-12-07T08:43:27;3.40;99.90
592;DHT22;283;53.608;10.046;2022-12-07T08:45:57;3.40;99.30
592;DHT22;283;53.608;10.046;2022-12-07T08:48:26;3.40;99.40
592;DHT22;283;53.608;10.046;2022-12-07T08:50:54;3.70;99.20
592;DHT22;283;53.608;10.046;2022-12-07T08:53:23;3.50;99.20
592;DHT22;283;53.608;10.046;2022-12-07T08:55:51;3.50;99.50
592;DHT22;283;53.608;10.046;2022-12-07T08:58:19;3.50;99.00
592;DHT22;283;53.608;10.046;2022-12-07T09:00:47;3.60;99.20
592;DHT22;283;53.608;10.046;2022-12-07T09:03:15;3.60;98.90
592;DHT22;283;53.608;10.046;2022-12-07T09:05:43;3.70;98.40
592;DHT22;283;53.608;10.046;2022-12-07T09:08:12;3.70;98.70
592;DHT22;283;53.608;10.046;2022-12-07T09:10:42;3.80;98.60
592;DHT22;283;53.608;10.046;2022-12-07T09:13:09;3.70;98.90
592;DHT22;283;53.608;10.046;2022-12-07T09:15:40;3.70;98.90
592;DHT22;283;53.608;10.046;2022-12-07T09:18:08;3.90;98.80
592;DHT22;283;53.608;10.046;2022-12-07T09:20:35;3.90;98.40
592;DHT22;283;53.608;10.046;2022-12-07T09:23:04;3.90;98.60
592;DHT22;283;53.608;10.046;2022-12-07T09:25:32;4.00;98.40
592;DHT22;283;53.608;10.046;2022-12-07T09:28:07;4.00;98.60
592;DHT22;283;53.608;10.046;2022-12-07T09:30:35;4.00;98.80
592;DHT22;283;53.608;10.046;2022-12-07T09:33:23;4.10;98.30
592;DHT22;283;53.608;10.046;2022-12-07T09:35:51;4.10;98.20
592;DHT22;283;53.608;10.046;2022-12-07T09:38:19;4.20;98.20
592;DHT22;283;53.608;10.046;2022-12-07T09:40:47;4.20;98.10
592;DHT22;283;53.608;10.046;2022-12-07T09:43:18;4.20;98.00
592;DHT22;283;53.608;10.046;2022-12-07T09:45:46;4.30;98.20
592;DHT22;283;53.608;10.046;2022-12-07T09:48:17;4.60;97.70
592;DHT22;283;53.608;10.046;2022-12-07T09:50:46;4.70;97.90
592;DHT22;283;53.608;10.046;2022-12-07T09:53:14;4.40;97.90
592;DHT22;283;53.608;10.046;2022-12-07T09:55:43;4.40;97.70
592;DHT22;283;53.608;10.046;2022-12-07T09:58:12;4.40;96.70
592;DHT22;283;53.608;10.046;2022-12-07T10:00:45;4.70;97.20
592;DHT22;283;53.608;10.046;2022-12-07T10:03:13;4.50;96.90
592;DHT22;283;53.608;10.046;2022-12-07T10:05:42;4.60;97.10
592;DHT22;283;53.608;10.046;2022-12-07T10:08:15;4.60;97.10
592;DHT22;283;53.608;10.046;2022-12-07T10:10:45;4.60;96.90
592;DHT22;283;53.608;10.046;2022-12-07T10:13:13;4.60;97.00
592;DHT22;283;53.608;10.046;2022-12-07T10:15:43;4.60;96.80
592;DHT22;283;53.608;10.046;2022-12-07T10:21:03;4.50;96.60
592;DHT22;283;53.608;10.046;2022-12-07T10:23:31;4.70;96.90
592;DHT22;283;53.608;10.046;2022-12-07T10:25:58;4.60;96.10
592;DHT22;283;53.608;10.046;2022-12-07T10:28:33;4.90;96.60
592;DHT22;283;53.608;10.046;2022-12-07T10:31:15;4.70;96.60
592;DHT22;283;53.608;10.046;2022-12-07T10:33:48;5.00;96.70
592;DHT22;283;53.608;10.046;2022-12-07T10:36:19;4.80;96.30
592;DHT22;283;53.608;10.046;2022-12-07T10:38:48;4.70;96.20
592;DHT22;283;53.608;10.046;2022-12-07T10:41:17;4.80;96.70
592;DHT22;283;53.608;10.046;2022-12-07T10:43:48;4.70;96.60
592;DHT22;283;53.608;10.046;2022-12-07T10:46:38;4.70;96.50
592;DHT22;283;53.608;10.046;2022-12-07T10:49:15;4.80;96.60
592;DHT22;283;53.608;10.046;2022-12-07T10:51:47;4.80;96.30
592;DHT22;283;53.608;10.046;2022-12-07T10:54:20;4.80;96.10
592;DHT22;283;53.608;10.046;2022-12-07T10:57:08;4.70;96.60
592;DHT22;283;53.608;10.046;2022-12-07T10:59:53;4.90;95.50
592;DHT22;283;53.608;10.046;2022-12-07T11:02:25;4.90;95.70
592;DHT22;283;53.608;10.046;2022-12-07T11:04:55;4.80;95.90
592;DHT22;283;53.608;10.046;2022-12-07T11:07:32;4.90;95.70
592;DHT22;283;53.608;10.046;2022-12-07T11:10:04;5.10;94.80
592;DHT22;283;53.608;10.046;2022-12-07T11:12:52;5.20;94.70
592;DHT22;283;53.608;10.046;2022-12-07T11:15:22;5.10;95.00
592;DHT22;283;53.608;10.046;2022-12-07T11:17:53;5.00;94.40
592;DHT22;283;53.608;10.046;2022-12-07T11:20:29;5.10;95.10
592;DHT22;283;53.608;10.046;2022-12-07T11:23:00;4.80;94.20
592;DHT22;283;53.608;10.046;2022-12-07T11:25:31;5.00;94.20
592;DHT22;283;53.608;10.046;2022-12-07T11:28:03;5.10;93.60
592;DHT22;283;53.608;10.046;2022-12-07T11:30:34;5.00;93.60
592;DHT22;283;53.608;10.046;2022-12-07T11:33:09;5.00;93.50
592;DHT22;283;53.608;10.046;2022-12-07T11:35:43;4.80;93.10
592;DHT22;283;53.608;10.046;2022-12-07T11:38:15;4.80;93.50
592;DHT22;283;53.608;10.046;2022-12-07T11:40:50;5.10;93.30
592;DHT22;283;53.608;10.046;2022-12-07T11:43:25;5.00;93.20
592;DHT22;283;53.608;10.046;2022-12-07T11:45:56;5.10;93.00
592;DHT22;283;53.608;10.046;2022-12-07T11:48:28;5.20;92.40
592;DHT22;283;53.608;10.046;2022-12-07T11:50:59;5.30;92.40
592;DHT22;283;53.608;10.046;2022-12-07T11:53:31;5.10;92.10
592;DHT22;283;53.608;10.046;2022-12-07T11:56:02;5.10;91.90
592;DHT22;283;53.608;10.046;2022-12-07T11:58:35;5.40;92.50
592;DHT22;283;53.608;10.046;2022-12-07T12:01:08;5.10;91.20
592;DHT22;283;53.608;10.046;2022-12-07T12:03:40;5.10;90.90
592;DHT22;283;53.608;10.046;2022-12-07T12:06:18;5.10;90.40
592;DHT22;283;53.608;10.046;2022-12-07T12:08:50;5.00;90.40
592;DHT22;283;53.608;10.046;2022-12-07T12:11:47;5.10;90.50
592;DHT22;283;53.608;10.046;2022-12-07T12:14:30;5.10;90.30
592;DHT22;283;53.608;10.046;2022-12-07T12:20:23;5.20;90.50
592;DHT22;283;53.608;10.046;2022-12-07T12:22:55;5.20;90.20
592;DHT22;283;53.608;10.046;2022-12-07T12:25:27;5.10;90.70
592;DHT22;283;53.608;10.046;2022-12-07T12:27:55;5.40;90.70
592;DHT22;283;53.608;10.046;2022-12-07T12:30:26;5.20;90.50
592;DHT22;283;53.608;10.046;2022-12-07T12:33:01;5.00;90.60
592;DHT22;283;53.608;10.046;2022-12-07T12:35:30;5.20;90.10
592;DHT22;283;53.608;10.046;2022-12-07T12:40:42;5.20;89.30
592;DHT22;283;53.608;10.046;2022-12-07T12:48:41;5.40;88.40
592;DHT22;283;53.608;10.046;2022-12-07T12:54:02;5.10;87.40
592;DHT22;283;53.608;10.046;2022-12-07T12:56:35;5.10;88.20
592;DHT22;283;53.608;10.046;2022-12-07T12:59:21;5.20;88.80
592;DHT22;283;53.608;10.046;2022-12-07T13:01:50;5.00;87.10
592;DHT22;283;53.608;10.046;2022-12-07T13:07:04;5.00;86.60
592;DHT22;283;53.608;10.046;2022-12-07T13:09:32;5.00;85.10
592;DHT22;283;53.608;10.046;2022-12-07T13:12:03;5.20;85.30
592;DHT22;283;53.608;10.046;2022-12-07T13:14:37;4.90;80.10
592;DHT22;283;53.608;10.046;2022-12-07T13:17:07;4.90;79.40
592;DHT22;283;53.608;10.046;2022-12-07T13:25:11;5.00;79.60
592;DHT22;283;53.608;10.046;2022-12-07T13:27:41;4.80;78.50
592;DHT22;283;53.608;10.046;2022-12-07T13:30:14;5.10;78.50
592;DHT22;283;53.608;10.046;2022-12-07T13:32:42;5.00;77.70
592;DHT22;283;53.608;10.046;2022-12-07T13:37:57;5.00;78.80
592;DHT22;283;53.608;10.046;2022-12-07T13:40:25;5.10;76.80
592;DHT22;283;53.608;10.046;2022-12-07T13:43:00;4.80;77.70
592;DHT22;283;53.608;10.046;2022-12-07T13:45:29;4.90;77.20
592;DHT22;283;53.608;10.046;2022-12-07T13:48:16;5.10;77.00
592;DHT22;283;53.608;10.046;2022-12-07T13:50:51;4.80;76.80
592;DHT22;283;53.608;10.046;2022-12-07T13:53:19;4.80;77.70
592;DHT22;283;53.608;10.046;2022-12-07T13:55:47;4.70;77.60
592;DHT22;283;53.608;10.046;2022-12-07T13:58:24;5.20;78.60
592;DHT22;283;53.608;10.046;2022-12-07T14:00:52;4.80;76.60
592;DHT22;283;53.608;10.046;2022-12-07T14:03:26;4.80;77.50
592;DHT22;283;53.608;10.046;2022-12-07T14:06:05;4.90;77.40
592;DHT22;283;53.608;10.046;2022-12-07T14:08:33;5.00;78.00
592;DHT22;283;53.608;10.046;2022-12-07T14:11:01;4.80;77.50
592;DHT22;283;53.608;10.046;2022-12-07T14:13:31;4.70;75.70
592;DHT22;283;53.608;10.046;2022-12-07T14:16:00;4.60;75.10
592;DHT22;283;53.608;10.046;2022-12-07T14:18:29;4.50;75.30
592;DHT22;283;53.608;10.046;2022-12-07T14:21:03;4.80;74.50
592;DHT22;283;53.608;10.046;2022-12-07T14:23:31;4.50;74.30
592;DHT22;283;53.608;10.046;2022-12-07T14:26:08;4.40;73.90
592;DHT22;283;53.608;10.046;2022-12-07T14:28:41;4.50;74.20
592;DHT22;283;53.608;10.046;2022-12-07T14:31:10;4.30;74.00
592;DHT22;283;53.608;10.046;2022-12-07T14:33:46;4.30;74.60
592;DHT22;283;53.608;10.046;2022-12-07T14:36:13;4.30;74.90
592;DHT22;283;53.608;10.046;2022-12-07T14:38:41;4.30;75.20
592;DHT22;283;53.608;10.046;2022-12-07T14:41:10;4.20;75.80
592;DHT22;283;53.608;10.046;2022-12-07T14:43:59;4.20;75.70
592;DHT22;283;53.608;10.046;2022-12-07T14:46:47;4.20;75.60
592;DHT22;283;53.608;10.046;2022-12-07T14:49:15;4.30;76.20
592;DHT22;283;53.608;10.046;2022-12-07T14:51:57;4.00;76.30
592;DHT22;283;53.608;10.046;2022-12-07T14:54:45;4.00;76.80
592;DHT22;283;53.608;10.046;2022-12-07T14:57:13;3.90;76.60
592;DHT22;283;53.608;10.046;2022-12-07T14:59:42;3.90;78.60
592;DHT22;283;53.608;10.046;2022-12-07T15:02:11;3.90;76.80
592;DHT22;283;53.608;10.046;2022-12-07T15:04:39;3.70;77.00
592;DHT22;283;53.608;10.046;2022-12-07T15:07:09;3.80;77.00
592;DHT22;283;53.608;10.046;2022-12-07T15:09:37;3.70;77.60
592;DHT22;283;53.608;10.046;2022-12-07T15:12:05;3.70;77.90
592;DHT22;283;53.608;10.046;2022-12-07T15:14:32;3.70;78.10
592;DHT22;283;53.608;10.046;2022-12-07T15:17:01;3.90;77.50
592;DHT22;283;53.608;10.046;2022-12-07T15:19:36;3.90;77.40
592;DHT22;283;53.608;10.046;2022-12-07T15:22:03;3.60;77.80
592;DHT22;283;53.608;10.046;2022-12-07T15:24:31;3.70;78.40
592;DHT22;283;53.608;10.046;2022-12-07T15:26:58;3.60;78.30
592;DHT22;283;53.608;10.046;2022-12-07T15:29:26;3.70;78.40
592;DHT22;283;53.608;10.046;2022-12-07T15:31:54;3.60;78.10
592;DHT22;283;53.608;10.046;2022-12-07T15:34:25;3.50;79.20
592;DHT22;283;53.608;10.046;2022-12-07T15:37:01;3.50;78.70
592;DHT22;283;53.608;10.046;2022-12-07T15:39:29;3.60;78.00
592;DHT22;283;53.608;10.046;2022-12-07T15:41:57;3.60;77.80
592;DHT22;283;53.608;10.046;2022-12-07T15:44:25;3.40;78.00
592;DHT22;283;53.608;10.046;2022-12-07T15:47:10;3.40;78.10
592;DHT22;283;53.608;10.046;2022-12-07T15:49:39;3.30;78.30
592;DHT22;283;53.608;10.046;2022-12-07T15:52:06;3.20;78.30
592;DHT22;283;53.608;10.046;2022-12-07T15:54:34;3.20;78.00
592;DHT22;283;53.608;10.046;2022-12-07T15:57:01;3.10;78.50
592;DHT22;283;53.608;10.046;2022-12-07T15:59:29;3.10;78.30
592;DHT22;283;53.608;10.046;2022-12-07T16:01:57;2.90;78.70
592;DHT22;283;53.608;10.046;2022-12-07T16:04:26;2.80;80.10
592;DHT22;283;53.608;10.046;2022-12-07T16:06:55;2.90;79.30
592;DHT22;283;53.608;10.046;2022-12-07T16:09:23;3.00;78.20
592;DHT22;283;53.608;10.046;2022-12-07T16:11:51;3.10;78.00
592;DHT22;283;53.608;10.046;2022-12-07T16:14:19;3.00;77.30
592;DHT22;283;53.608;10.046;2022-12-07T16:16:47;3.00;78.70
592;DHT22;283;53.608;10.046;2022-12-07T16:19:15;3.10;78.30
592;DHT22;283;53.608;10.046;2022-12-07T16:21:42;2.90;79.00
592;DHT22;283;53.608;10.046;2022-12-07T16:24:11;3.00;79.30
592;DHT22;283;53.608;10.046;2022-12-07T16:26:41;3.00;78.50
592;DHT22;283;53.608;10.046;2022-12-07T16:29:16;3.00;78.10
592;DHT22;283;53.608;10.046;2022-12-07T16:31:44;3.00;77.90
592;DHT22;283;53.608;10.046;2022-12-07T16:34:11;2.90;77.80
592;DHT22;283;53.608;10.046;2022-12-07T16:36:39;2.90;77.70
592;DHT22;283;53.608;10.046;2022-12-07T16:39:28;2.80;77.70
592;DHT22;283;53.608;10.046;2022-12-07T16:41:56;2.70;78.40
592;DHT22;283;53.608;10.046;2022-12-07T16:44:23;2.60;79.50
592;DHT22;283;53.608;10.046;2022-12-07T16:46:51;2.50;79.80
592;DHT22;283;53.608;10.046;2022-12-07T16:49:19;2.50;80.80
592;DHT22;283;53.608;10.046;2022-12-07T16:51:48;2.40;81.20
592;DHT22;283;53.608;10.046;2022-12-07T16:54:37;2.40;81.60
592;DHT22;283;53.608;10.046;2022-12-07T16:57:05;2.40;81.30
592;DHT22;283;53.608;10.046;2022-12-07T16:59:33;2.40;81.20
592;DHT22;283;53.608;10.046;2022-12-07T17:02:00;2.50;81.90
592;DHT22;283;53.608;10.046;2022-12-07T17:04:28;2.50;81.40
592;DHT22;283;53.608;10.046;2022-12-07T17:06:56;2.50;82.10
592;DHT22;283;53.608;10.046;2022-12-07T17:09:25;2.50;82.40
592;DHT22;283;53.608;10.046;2022-12-07T17:11:54;2.50;82.70
592;DHT22;283;53.608;10.046;2022-12-07T17:14:21;2.50;83.30
592;DHT22;283;53.608;10.046;2022-12-07T17:17:07;2.50;83.00
592;DHT22;283;53.608;10.046;2022-12-07T17:19:35;2.50;83.70
592;DHT22;283;53.608;10.046;2022-12-07T17:22:02;2.40;84.10
592;DHT22;283;53.608;10.046;2022-12-07T17:24:30;2.50;84.50
592;DHT22;283;53.608;10.046;2022-12-07T17:26:59;2.50;83.70
592;DHT22;283;53.608;10.046;2022-12-07T17:29:27;2.60;83.60
592;DHT22;283;53.608;10.046;2022-12-07T17:31:54;2.60;83.90
592;DHT22;283;53.608;10.046;2022-12-07T17:34:22;2.60;84.00
592;DHT22;283;53.608;10.046;2022-12-07T17:36:50;2.60;83.70
592;DHT22;283;53.608;10.046;2022-12-07T17:39:17;2.50;84.00
592;DHT22;283;53.608;10.046;2022-12-07T17:41:45;2.50;84.60